Time;durP1;ratioP1;P1;durP2;ratioP2;P2;SDS_P1;SDS_P2;PMS_P1;PMS_P2;Temp;Humidity;BMP_temperature;BMP_pressure;BME280_temperature;BME280_humidity;BME280_pressure;Samples;Min_cycle;Max_cycle;Signal;HPM_P1;HPM_P2
2021/08/02 00:00:15;;;;;;;15.02;9.15;;;18.80;99.90;;;;;;5048415;28;20035;-68
2021/08/02 00:03:04;;;;;;;17.42;10.38;;;18.80;99.90;;;;;;5051005;28;20429;-70
2021/08/02 00:05:35;;;;;;;14.57;9.63;;;18.80;99.90;;;;;;5056809;28;20045;-70
2021/08/02 00:08:02;;;;;;;13.02;8.98;;;18.70;99.90;;;;;;5050755;28;20102;-70
2021/08/02 00:10:33;;;;;;;13.68;9.35;;;18.70;99.90;;;;;;5048386;28;20124;-70
2021/08/02 00:13:05;;;;;;;18.77;10.55;;;18.70;99.90;;;;;;5050303;28;20029;-69
2021/08/02 00:15:31;;;;;;;16.42;9.85;;;18.70;99.90;;;;;;5054488;28;20051;-70
2021/08/02 00:17:57;;;;;;;30.52;12.73;;;18.70;99.90;;;;;;5052178;28;20056;-69
2021/08/02 00:20:31;;;;;;;13.63;9.25;;;18.60;99.90;;;;;;5053981;28;20033;-69
2021/08/02 00:22:59;;;;;;;16.42;10.60;;;18.50;99.90;;;;;;5053247;28;20025;-69
2021/08/02 00:25:25;;;;;;;15.90;11.52;;;18.60;99.90;;;;;;5046443;28;20481;-70
2021/08/02 00:27:52;;;;;;;20.90;10.32;;;18.60;99.90;;;;;;5051594;28;20096;-70
2021/08/02 00:30:18;;;;;;;10.48;9.00;;;18.60;99.90;;;;;;5045342;28;20025;-70
2021/08/02 00:32:44;;;;;;;12.57;8.65;;;18.60;99.90;;;;;;5049967;28;20013;-70
2021/08/02 00:35:10;;;;;;;13.85;9.68;;;18.60;99.90;;;;;;5049072;28;20021;-70
2021/08/02 00:37:44;;;;;;;14.90;10.00;;;18.60;99.90;;;;;;5053315;28;20497;-70
2021/08/02 00:40:25;;;;;;;17.70;11.10;;;18.60;99.90;;;;;;5050435;28;20025;-69
2021/08/02 00:43:08;;;;;;;14.70;9.25;;;18.60;99.90;;;;;;5047556;28;20511;-69
2021/08/02 00:45:35;;;;;;;23.98;10.25;;;18.60;99.90;;;;;;5049350;28;20017;-68
2021/08/02 00:48:15;;;;;;;15.95;9.93;;;18.60;99.90;;;;;;5047981;28;20079;-68
2021/08/02 00:50:50;;;;;;;14.93;9.40;;;18.60;99.90;;;;;;5052306;28;20025;-70
2021/08/02 00:53:24;;;;;;;13.02;9.98;;;18.60;99.90;;;;;;5050836;28;20064;-69
2021/08/02 00:55:53;;;;;;;17.50;9.65;;;18.60;99.90;;;;;;5050154;28;20032;-70
2021/08/02 00:58:23;;;;;;;15.88;9.27;;;18.60;99.90;;;;;;5051500;28;20034;-71
2021/08/02 01:00:50;;;;;;;19.08;9.05;;;18.60;99.90;;;;;;5052045;28;20136;-70
2021/08/02 01:03:16;;;;;;;17.58;9.15;;;18.50;99.90;;;;;;5047497;28;20070;-70
2021/08/02 01:05:45;;;;;;;14.15;9.98;;;18.60;99.90;;;;;;5051326;28;20013;-69
2021/08/02 01:08:32;;;;;;;11.82;7.95;;;18.60;99.90;;;;;;5051156;28;20124;-69
2021/08/02 01:11:09;;;;;;;16.48;9.48;;;18.50;99.90;;;;;;5046224;28;20036;-70
2021/08/02 01:13:37;;;;;;;13.90;9.55;;;18.50;99.90;;;;;;5044126;28;20016;-69
2021/08/02 01:16:06;;;;;;;15.52;9.70;;;18.40;99.90;;;;;;5050874;28;20384;-70
2021/08/02 01:18:33;;;;;;;18.27;10.82;;;18.30;99.90;;;;;;5050456;28;20063;-69
2021/08/02 01:21:08;;;;;;;15.98;9.43;;;18.40;99.90;;;;;;5048547;28;20111;-71
2021/08/02 01:23:35;;;;;;;21.75;9.27;;;18.40;99.90;;;;;;5045228;28;20034;-71
2021/08/02 01:26:03;;;;;;;18.30;8.70;;;18.50;99.90;;;;;;5047117;28;20029;-70
2021/08/02 01:28:31;;;;;;;11.70;8.82;;;18.40;99.90;;;;;;5050836;28;20028;-70
2021/08/02 01:30:59;;;;;;;25.15;11.20;;;18.40;99.90;;;;;;5049835;28;20397;-71
2021/08/02 01:33:30;;;;;;;17.17;9.07;;;18.30;99.90;;;;;;5051884;28;20032;-70
2021/08/02 01:36:03;;;;;;;17.17;10.20;;;18.30;99.90;;;;;;5051858;28;20071;-70
2021/08/02 01:38:30;;;;;;;14.80;9.23;;;18.30;99.90;;;;;;5049214;28;20083;-71
2021/08/02 01:40:57;;;;;;;11.55;8.75;;;18.30;99.90;;;;;;5045073;28;20028;-71
2021/08/02 01:43:23;;;;;;;14.07;8.00;;;18.30;99.90;;;;;;5047336;28;20025;-71
2021/08/02 01:46:10;;;;;;;9.05;7.50;;;18.40;99.90;;;;;;5049150;28;20107;-71
2021/08/02 01:49:22;;;;;;;16.77;8.50;;;18.30;99.90;;;;;;5050825;28;20112;-71
2021/08/02 01:51:54;;;;;;;13.52;8.30;;;18.30;99.90;;;;;;5051162;28;20040;-70
2021/08/02 01:54:58;;;;;;;10.45;8.00;;;18.20;99.90;;;;;;5053187;28;20083;-70
2021/08/02 01:57:32;;;;;;;15.88;7.68;;;18.20;99.90;;;;;;5046278;28;20091;-71
2021/08/02 02:00:12;;;;;;;20.45;8.63;;;18.20;99.90;;;;;;5051259;28;20021;-71
2021/08/02 02:02:39;;;;;;;15.82;7.57;;;18.20;99.90;;;;;;5051194;28;20041;-70
2021/08/02 02:05:17;;;;;;;17.90;8.07;;;18.30;99.90;;;;;;5048421;28;20053;-70
2021/08/02 02:08:15;;;;;;;16.63;8.70;;;18.30;99.90;;;;;;5049392;28;20028;-70
2021/08/02 02:10:46;;;;;;;16.88;8.95;;;18.30;99.90;;;;;;5046050;28;20472;-70
2021/08/02 02:13:19;;;;;;;11.35;7.55;;;18.30;99.90;;;;;;5050660;28;20116;-71
2021/08/02 02:15:53;;;;;;;11.60;7.45;;;18.20;99.90;;;;;;5048378;28;20021;-71
2021/08/02 02:18:21;;;;;;;15.23;7.55;;;18.20;99.90;;;;;;5052181;28;20040;-71
2021/08/02 02:20:49;;;;;;;10.70;7.40;;;18.20;99.90;;;;;;5063025;28;20462;-71
2021/08/02 02:23:16;;;;;;;17.10;7.95;;;18.20;99.90;;;;;;5053990;28;20033;-71
2021/08/02 02:25:43;;;;;;;14.05;7.80;;;18.20;99.90;;;;;;5057899;28;20035;-70
2021/08/02 02:28:12;;;;;;;23.75;8.27;;;18.10;99.90;;;;;;5050862;28;20036;-72
2021/08/02 02:30:40;;;;;;;14.07;7.90;;;18.00;99.90;;;;;;5052375;28;20031;-72
2021/08/02 02:33:08;;;;;;;12.60;8.07;;;18.00;99.90;;;;;;5059657;28;20030;-72
2021/08/02 02:35:40;;;;;;;15.05;7.13;;;18.10;99.90;;;;;;5052025;28;20120;-70
2021/08/02 02:38:08;;;;;;;15.40;6.90;;;18.10;99.90;;;;;;5051784;28;20115;-70
2021/08/02 02:40:36;;;;;;;14.52;8.13;;;18.10;99.90;;;;;;5052239;28;20071;-71
2021/08/02 02:43:02;;;;;;;15.77;9.00;;;18.10;99.90;;;;;;5049970;28;20111;-70
2021/08/02 02:45:28;;;;;;;13.95;9.35;;;18.00;99.90;;;;;;5053620;28;20386;-71
2021/08/02 02:47:54;;;;;;;17.30;9.27;;;18.10;99.90;;;;;;5050474;28;20025;-71
2021/08/02 02:50:21;;;;;;;13.48;7.65;;;18.10;99.90;;;;;;5062790;28;20373;-71
2021/08/02 02:52:47;;;;;;;19.10;6.85;;;18.10;99.90;;;;;;5061001;28;20103;-71
2021/08/02 02:55:13;;;;;;;13.52;8.35;;;18.10;99.90;;;;;;5060077;28;20096;-71
2021/08/02 02:57:39;;;;;;;14.85;7.78;;;18.10;99.90;;;;;;5053412;28;20128;-72
2021/08/02 03:00:08;;;;;;;15.98;8.30;;;18.10;99.90;;;;;;5049446;28;20028;-71
2021/08/02 03:02:36;;;;;;;11.00;8.18;;;18.10;99.90;;;;;;5060922;28;20021;-71
2021/08/02 03:05:02;;;;;;;10.88;7.68;;;18.10;99.90;;;;;;5062606;28;20028;-71
2021/08/02 03:07:30;;;;;;;12.68;7.53;;;18.10;99.90;;;;;;5054248;28;20037;-71
2021/08/02 03:09:57;;;;;;;15.13;7.80;;;18.20;99.90;;;;;;5056129;28;20429;-71
2021/08/02 03:12:23;;;;;;;13.98;8.07;;;18.10;99.90;;;;;;5056868;28;20039;-71
2021/08/02 03:14:49;;;;;;;11.95;7.78;;;18.00;99.90;;;;;;5058191;28;20017;-71
2021/08/02 03:17:14;;;;;;;21.73;9.32;;;18.00;99.90;;;;;;5055547;28;20041;-72
2021/08/02 03:19:40;;;;;;;18.30;8.00;;;18.00;99.90;;;;;;5053797;28;20029;-71
2021/08/02 03:22:21;;;;;;;15.95;7.20;;;17.90;99.90;;;;;;5063694;28;20062;-70
2021/08/02 03:24:50;;;;;;;13.57;7.03;;;18.00;99.90;;;;;;5050166;28;20055;-71
2021/08/02 03:27:15;;;;;;;11.93;7.43;;;18.00;99.90;;;;;;5056310;28;20033;-72
2021/08/02 03:29:45;;;;;;;16.90;7.32;;;18.00;99.90;;;;;;5063885;28;20525;-71
2021/08/02 03:32:17;;;;;;;14.80;7.95;;;18.00;99.90;;;;;;5056716;28;20505;-72
2021/08/02 03:34:48;;;;;;;15.38;7.90;;;18.00;99.90;;;;;;5051640;28;20077;-71
2021/08/02 03:37:15;;;;;;;17.67;8.13;;;18.00;99.90;;;;;;5061798;28;20489;-71
2021/08/02 03:39:44;;;;;;;24.85;10.68;;;18.00;99.90;;;;;;5061979;28;20029;-70
2021/08/02 03:42:12;;;;;;;16.33;9.77;;;17.90;99.90;;;;;;5053842;28;20039;-71
2021/08/02 03:44:38;;;;;;;11.00;7.32;;;17.90;99.90;;;;;;5053257;28;20541;-71
2021/08/02 03:47:04;;;;;;;12.20;8.25;;;17.90;99.90;;;;;;5062134;28;20106;-71
2021/08/02 03:49:31;;;;;;;15.57;7.88;;;17.90;99.90;;;;;;5065022;28;20529;-71
2021/08/02 03:51:59;;;;;;;13.80;8.60;;;17.90;99.90;;;;;;5054219;28;20040;-71
2021/08/02 03:54:27;;;;;;;11.35;7.78;;;18.00;99.90;;;;;;5053425;28;20477;-71
2021/08/02 03:56:53;;;;;;;11.05;7.70;;;17.90;99.90;;;;;;5054859;28;20025;-70
2021/08/02 03:59:18;;;;;;;12.73;7.13;;;18.00;99.90;;;;;;5055776;28;20033;-71
2021/08/02 04:01:46;;;;;;;12.65;7.35;;;18.00;99.90;;;;;;5054804;28;20485;-71
2021/08/02 04:04:13;;;;;;;11.13;7.97;;;18.00;99.90;;;;;;5062726;28;20028;-71
2021/08/02 04:06:39;;;;;;;12.80;8.45;;;18.00;99.90;;;;;;5054343;28;20028;-71
2021/08/02 04:09:08;;;;;;;16.75;7.88;;;18.00;99.90;;;;;;5058110;28;20111;-71
2021/08/02 04:11:35;;;;;;;14.02;8.05;;;18.00;99.90;;;;;;5047172;28;20032;-71
2021/08/02 04:14:01;;;;;;;18.98;8.10;;;18.00;99.90;;;;;;5058072;28;20020;-71
2021/08/02 04:16:26;;;;;;;13.55;7.25;;;18.00;99.90;;;;;;5061681;28;20078;-71
2021/08/02 04:18:52;;;;;;;15.07;7.65;;;18.00;99.90;;;;;;5056599;28;20060;-71
2021/08/02 04:21:18;;;;;;;14.25;8.30;;;17.90;99.90;;;;;;5056626;28;20033;-71
2021/08/02 04:23:44;;;;;;;10.00;7.32;;;18.00;99.90;;;;;;5060340;28;20033;-71
2021/08/02 04:26:12;;;;;;;12.52;7.22;;;17.90;99.90;;;;;;5066227;28;20029;-71
2021/08/02 04:28:43;;;;;;;17.27;8.05;;;18.00;99.90;;;;;;5062939;28;20025;-71
2021/08/02 04:31:09;;;;;;;10.73;7.20;;;18.00;99.90;;;;;;5046711;28;20035;-71
2021/08/02 04:33:35;;;;;;;11.57;7.97;;;18.00;99.90;;;;;;5062635;28;20028;-71
2021/08/02 04:36:01;;;;;;;16.33;8.18;;;18.00;99.90;;;;;;5050911;28;20036;-72
2021/08/02 04:38:27;;;;;;;12.95;7.65;;;18.00;99.90;;;;;;5051909;28;20029;-71
2021/08/02 04:40:53;;;;;;;14.32;8.07;;;17.90;99.90;;;;;;5063843;28;20016;-71
2021/08/02 04:43:19;;;;;;;17.95;8.85;;;17.90;99.90;;;;;;5045308;28;20040;-71
2021/08/02 04:45:45;;;;;;;25.30;10.60;;;17.90;99.90;;;;;;5056713;28;20029;-72
2021/08/02 04:48:10;;;;;;;11.63;7.90;;;17.70;99.90;;;;;;5064105;28;20100;-71
2021/08/02 04:50:38;;;;;;;21.13;8.48;;;17.80;99.90;;;;;;5053930;28;20469;-71
2021/08/02 04:53:03;;;;;;;17.75;8.93;;;17.80;99.90;;;;;;5043218;28;20036;-71
2021/08/02 04:55:29;;;;;;;11.90;8.10;;;17.90;99.90;;;;;;5061596;28;20385;-71
2021/08/02 04:57:55;;;;;;;11.98;8.38;;;17.90;99.90;;;;;;5056509;28;20045;-72
2021/08/02 05:00:20;;;;;;;22.48;9.95;;;17.80;99.90;;;;;;5055732;28;20025;-72
2021/08/02 05:02:46;;;;;;;16.88;8.73;;;17.80;99.90;;;;;;5054001;28;20388;-72
2021/08/02 05:05:11;;;;;;;18.10;7.63;;;17.80;99.90;;;;;;5053937;28;20057;-71
2021/08/02 05:07:37;;;;;;;16.23;8.85;;;17.80;99.90;;;;;;5054962;28;20496;-71
2021/08/02 05:10:03;;;;;;;13.90;7.85;;;17.80;99.90;;;;;;5053575;28;20024;-71
2021/08/02 05:12:29;;;;;;;12.80;8.38;;;17.90;99.90;;;;;;5055620;28;20041;-71
2021/08/02 05:14:55;;;;;;;10.23;8.00;;;17.90;99.90;;;;;;5054426;28;20381;-71
2021/08/02 05:17:20;;;;;;;16.77;8.85;;;17.90;99.90;;;;;;5046821;28;20041;-71
2021/08/02 05:19:46;;;;;;;13.18;9.15;;;17.90;99.90;;;;;;5054615;28;20013;-72
2021/08/02 05:22:11;;;;;;;14.60;9.27;;;18.00;99.90;;;;;;5051422;28;20037;-72
2021/08/02 05:24:37;;;;;;;22.23;9.52;;;18.00;99.90;;;;;;5049544;28;20028;-73
2021/08/02 05:27:03;;;;;;;13.13;8.38;;;18.00;99.90;;;;;;5053962;28;20704;-71
2021/08/02 05:29:29;;;;;;;16.55;8.23;;;18.10;99.90;;;;;;5047004;28;20076;-72
2021/08/02 05:31:54;;;;;;;16.00;8.50;;;18.10;99.90;;;;;;5054316;28;20031;-72
2021/08/02 05:34:20;;;;;;;13.63;9.88;;;18.10;99.90;;;;;;5063877;28;20052;-72
2021/08/02 05:36:46;;;;;;;16.50;8.90;;;18.00;99.90;;;;;;5053522;28;20066;-72
2021/08/02 05:39:11;;;;;;;14.63;9.30;;;18.10;99.90;;;;;;5050501;28;20032;-70
2021/08/02 05:41:37;;;;;;;11.90;8.02;;;18.00;99.90;;;;;;5052111;28;20033;-71
2021/08/02 05:44:03;;;;;;;18.33;9.23;;;18.10;99.90;;;;;;5060528;28;20053;-70
2021/08/02 05:46:29;;;;;;;11.95;8.82;;;18.00;99.90;;;;;;5055038;28;20039;-71
2021/08/02 05:48:55;;;;;;;15.25;9.50;;;18.00;99.90;;;;;;5040372;28;20469;-71
2021/08/02 05:51:20;;;;;;;13.90;9.68;;;18.00;99.90;;;;;;5050310;28;20033;-71
2021/08/02 05:53:46;;;;;;;16.95;9.50;;;18.00;99.90;;;;;;5052482;28;20036;-71
2021/08/02 05:56:12;;;;;;;13.45;9.35;;;17.90;99.90;;;;;;5055714;28;20032;-71
2021/08/02 05:58:38;;;;;;;13.18;9.45;;;18.00;99.90;;;;;;5055475;28;20119;-71
2021/08/02 06:01:04;;;;;;;17.45;9.73;;;18.00;99.90;;;;;;5048767;28;20025;-71
2021/08/02 06:03:30;;;;;;;16.83;9.52;;;18.00;99.90;;;;;;5048473;28;20033;-72
2021/08/02 06:05:55;;;;;;;13.07;8.90;;;18.00;99.90;;;;;;5057240;28;20032;-72
2021/08/02 06:08:21;;;;;;;12.40;9.10;;;18.00;99.90;;;;;;5062698;28;20090;-73
2021/08/02 06:10:47;;;;;;;13.68;8.95;;;17.80;99.90;;;;;;5059491;28;20032;-73
2021/08/02 06:13:12;;;;;;;11.45;8.88;;;17.90;99.90;;;;;;5060254;28;20025;-71
2021/08/02 06:15:38;;;;;;;16.65;8.75;;;17.90;99.90;;;;;;5055044;28;20101;-72
2021/08/02 06:18:04;;;;;;;12.75;7.72;;;17.80;99.90;;;;;;5049630;28;20040;-72
2021/08/02 06:20:29;;;;;;;12.63;7.25;;;17.80;99.90;;;;;;5050545;28;20029;-71
2021/08/02 06:22:55;;;;;;;11.32;7.97;;;17.80;99.90;;;;;;5055042;28;20070;-71
2021/08/02 06:25:21;;;;;;;12.73;7.80;;;17.80;99.90;;;;;;5059821;28;20033;-71
2021/08/02 06:27:46;;;;;;;14.70;8.40;;;17.80;99.90;;;;;;5060657;28;20035;-71
2021/08/02 06:30:12;;;;;;;14.48;8.70;;;17.80;99.90;;;;;;5058987;28;20095;-71
2021/08/02 06:32:38;;;;;;;12.77;7.50;;;17.70;99.90;;;;;;5052660;28;20130;-70
2021/08/02 06:35:04;;;;;;;11.75;7.68;;;17.70;99.90;;;;;;5054414;28;20017;-71
2021/08/02 06:37:29;;;;;;;12.48;8.18;;;17.80;99.90;;;;;;5051712;28;20064;-71
2021/08/02 06:39:55;;;;;;;10.55;7.53;;;17.90;99.90;;;;;;5059491;28;20098;-70
2021/08/02 06:42:20;;;;;;;15.05;7.43;;;17.90;99.90;;;;;;5030403;28;20039;-71
2021/08/02 06:44:46;;;;;;;9.70;5.72;;;18.00;99.90;;;;;;5034200;28;20032;-71
2021/08/02 06:47:12;;;;;;;9.30;5.40;;;18.00;99.90;;;;;;5054082;28;20866;-71
2021/08/02 06:49:38;;;;;;;6.93;4.85;;;18.00;99.90;;;;;;5058890;28;20021;-71
2021/08/02 06:52:04;;;;;;;10.52;5.38;;;18.00;99.90;;;;;;5054247;28;20032;-71
2021/08/02 06:54:30;;;;;;;9.60;5.30;;;18.20;99.90;;;;;;5052895;28;20103;-72
2021/08/02 06:56:55;;;;;;;7.07;5.25;;;18.20;99.90;;;;;;5051414;28;20124;-70
2021/08/02 06:59:21;;;;;;;8.75;6.22;;;18.20;99.90;;;;;;5051356;28;20373;-72
2021/08/02 07:01:47;;;;;;;9.98;5.70;;;18.20;99.90;;;;;;5046687;28;20029;-72
2021/08/02 07:04:13;;;;;;;9.52;5.63;;;18.20;99.90;;;;;;5046827;28;20366;-70
2021/08/02 07:06:43;;;;;;;7.15;5.57;;;18.00;99.90;;;;;;5053512;28;20366;-70
2021/08/02 07:09:09;;;;;;;12.55;6.28;;;18.10;99.90;;;;;;5046572;28;20032;-70
2021/08/02 07:11:34;;;;;;;9.40;6.28;;;18.10;99.90;;;;;;5051518;28;20021;-72
2021/08/02 07:14:00;;;;;;;11.93;6.47;;;17.90;99.90;;;;;;5050672;28;20075;-72
2021/08/02 07:16:25;;;;;;;8.35;5.65;;;17.90;99.90;;;;;;5051668;28;20033;-72
2021/08/02 07:18:53;;;;;;;7.40;5.60;;;18.10;99.90;;;;;;5053074;28;20031;-73
2021/08/02 07:21:19;;;;;;;7.57;5.65;;;18.10;99.90;;;;;;5054264;28;20062;-72
2021/08/02 07:23:45;;;;;;;9.73;5.07;;;18.00;99.90;;;;;;5052714;28;20068;-71
2021/08/02 07:26:11;;;;;;;9.40;5.80;;;17.90;99.90;;;;;;5049046;28;20036;-73
2021/08/02 07:28:36;;;;;;;6.40;5.22;;;17.90;99.90;;;;;;5060280;28;20037;-71
2021/08/02 07:31:03;;;;;;;9.55;6.72;;;18.10;99.90;;;;;;5048080;28;20021;-72
2021/08/02 07:33:28;;;;;;;7.65;5.70;;;18.20;99.90;;;;;;5059544;28;20033;-73
2021/08/02 07:35:54;;;;;;;8.98;6.10;;;18.20;99.90;;;;;;5057674;28;20549;-73
2021/08/02 07:38:19;;;;;;;7.47;5.18;;;18.30;99.90;;;;;;5056160;28;20033;-73
2021/08/02 07:40:45;;;;;;;10.35;5.68;;;18.20;99.90;;;;;;5052619;28;20050;-73
2021/08/02 07:43:11;;;;;;;7.70;6.03;;;18.20;99.90;;;;;;5048190;28;20470;-70
2021/08/02 07:45:36;;;;;;;9.85;6.40;;;18.00;99.90;;;;;;5046047;28;20048;-72
2021/08/02 07:48:02;;;;;;;10.95;6.18;;;18.10;99.90;;;;;;5051373;28;20359;-70
2021/08/02 07:50:29;;;;;;;10.15;7.38;;;18.10;99.90;;;;;;5051646;28;20450;-72
2021/08/02 07:52:55;;;;;;;10.65;6.47;;;18.20;99.90;;;;;;5055389;28;20484;-70
2021/08/02 07:55:21;;;;;;;9.63;6.68;;;18.30;99.90;;;;;;5058550;28;20051;-73
2021/08/02 07:57:46;;;;;;;15.13;7.20;;;18.40;99.90;;;;;;5058113;28;20028;-72
2021/08/02 08:00:16;;;;;;;10.00;6.82;;;18.50;99.90;;;;;;5056792;28;20070;-71
2021/08/02 08:02:41;;;;;;;10.25;6.88;;;18.50;99.90;;;;;;5046154;28;20029;-73
2021/08/02 08:05:07;;;;;;;12.68;6.57;;;18.60;99.90;;;;;;5053406;28;20025;-70
2021/08/02 08:07:47;;;;;;;14.60;7.53;;;18.50;99.90;;;;;;5054297;28;20025;-71
2021/08/02 08:10:15;;;;;;;11.13;6.30;;;18.60;99.90;;;;;;5053158;28;20069;-72
2021/08/02 08:12:41;;;;;;;11.30;6.70;;;18.60;99.90;;;;;;5048635;28;20524;-72
2021/08/02 08:15:08;;;;;;;10.45;7.35;;;18.70;99.90;;;;;;5050480;28;20021;-69
2021/08/02 08:17:33;;;;;;;11.20;6.55;;;18.70;99.90;;;;;;5054285;28;20044;-69
2021/08/02 08:19:59;;;;;;;8.90;6.45;;;18.70;99.90;;;;;;5052049;28;20013;-72
2021/08/02 08:22:26;;;;;;;9.07;6.43;;;18.70;99.90;;;;;;5048136;28;20108;-72
2021/08/02 08:24:53;;;;;;;9.85;6.45;;;18.80;99.90;;;;;;5050802;28;20031;-72
2021/08/02 08:27:18;;;;;;;7.50;5.75;;;18.90;99.90;;;;;;5052602;28;20021;-72
2021/08/02 08:29:44;;;;;;;7.95;5.88;;;19.00;99.90;;;;;;5055487;28;20393;-72
2021/08/02 08:32:10;;;;;;;8.07;5.07;;;19.00;99.90;;;;;;5049891;28;20052;-73
2021/08/02 08:34:35;;;;;;;11.57;6.25;;;18.80;99.90;;;;;;5045307;28;20017;-72
2021/08/02 08:37:01;;;;;;;9.60;6.18;;;18.80;99.90;;;;;;5044824;28;20037;-71
2021/08/02 08:39:27;;;;;;;9.48;5.13;;;18.70;99.90;;;;;;5053556;28;20021;-72
2021/08/02 08:41:53;;;;;;;7.18;4.57;;;18.90;99.90;;;;;;5047219;28;20557;-72
2021/08/02 08:44:25;;;;;;;7.18;4.97;;;18.90;99.90;;;;;;5047941;28;20111;-72
2021/08/02 08:46:51;;;;;;;6.72;4.82;;;19.00;99.90;;;;;;5048571;28;20061;-73
2021/08/02 08:49:16;;;;;;;5.72;5.07;;;19.10;99.90;;;;;;5047984;28;20487;-72
2021/08/02 08:51:42;;;;;;;9.88;4.80;;;19.20;99.90;;;;;;5051072;28;20027;-72
2021/08/02 08:54:09;;;;;;;10.60;5.38;;;19.10;99.90;;;;;;5050727;28;20051;-71
2021/08/02 08:56:35;;;;;;;7.22;4.55;;;19.20;99.90;;;;;;5048618;28;20118;-73
2021/08/02 08:59:01;;;;;;;6.38;4.65;;;19.30;99.90;;;;;;5049259;28;20057;-73
2021/08/02 09:01:28;;;;;;;7.72;4.38;;;19.40;99.90;;;;;;5054044;28;20453;-73
2021/08/02 09:03:55;;;;;;;6.38;4.80;;;19.50;99.90;;;;;;5056437;28;20056;-71
2021/08/02 09:06:21;;;;;;;8.95;5.07;;;19.50;99.90;;;;;;5045505;28;20020;-72
2021/08/02 09:08:47;;;;;;;7.75;5.40;;;19.50;99.90;;;;;;5050093;28;20060;-72
2021/08/02 09:11:24;;;;;;;7.35;4.57;;;19.60;99.90;;;;;;5052273;28;20016;-71
2021/08/02 09:13:51;;;;;;;6.25;4.40;;;19.80;99.90;;;;;;5050071;28;20041;-72
2021/08/02 09:16:26;;;;;;;7.90;5.00;;;19.80;99.90;;;;;;5044587;28;20025;-73
2021/08/02 09:19:07;;;;;;;8.23;4.50;;;19.80;99.90;;;;;;5052481;28;20036;-72
2021/08/02 09:21:41;;;;;;;5.90;4.90;;;19.90;99.90;;;;;;5061659;28;20386;-73
2021/08/02 09:24:07;;;;;;;7.07;4.70;;;20.00;99.90;;;;;;5050944;28;20021;-68
2021/08/02 09:26:38;;;;;;;5.45;4.43;;;19.90;99.90;;;;;;5045316;28;20062;-72
2021/08/02 09:29:04;;;;;;;7.75;4.50;;;20.00;99.90;;;;;;5048904;28;20060;-71
2021/08/02 09:31:32;;;;;;;8.13;4.40;;;20.10;99.90;;;;;;5047538;28;20032;-71
2021/08/02 09:34:04;;;;;;;10.27;4.63;;;20.20;99.90;;;;;;5050969;28;20480;-71
2021/08/02 09:36:38;;;;;;;6.28;4.70;;;20.30;99.90;;;;;;5048655;28;20036;-72
2021/08/02 09:39:06;;;;;;;9.45;4.07;;;20.00;99.90;;;;;;5041130;28;20025;-70
2021/08/02 09:41:32;;;;;;;6.20;3.90;;;19.80;99.90;;;;;;5057041;28;20021;-70
2021/08/02 09:43:58;;;;;;;6.53;3.28;;;19.90;99.90;;;;;;5042258;28;20480;-72
2021/08/02 09:46:23;;;;;;;8.52;4.43;;;20.00;99.90;;;;;;5052404;28;20095;-72
2021/08/02 09:48:49;;;;;;;6.57;3.83;;;20.00;99.90;;;;;;5051348;28;20032;-70
2021/08/02 09:51:16;;;;;;;3.55;2.80;;;20.20;99.90;;;;;;5046335;28;20028;-70
2021/08/02 09:53:43;;;;;;;10.48;4.10;;;20.20;99.90;;;;;;5049247;28;20032;-70
2021/08/02 09:56:17;;;;;;;8.45;3.20;;;20.30;99.90;;;;;;5050276;28;20504;-70
2021/08/02 09:58:45;;;;;;;6.93;3.25;;;20.40;99.90;;;;;;5048135;28;20025;-72
2021/08/02 10:01:15;;;;;;;4.90;3.35;;;20.50;99.90;;;;;;5051099;28;20079;-71
2021/08/02 10:03:41;;;;;;;7.22;4.20;;;20.70;99.90;;;;;;5054231;28;20561;-71
2021/08/02 10:06:07;;;;;;;8.10;3.35;;;20.60;99.90;;;;;;5045037;28;20493;-70
2021/08/02 10:08:34;;;;;;;4.63;3.20;;;20.70;99.90;;;;;;5050431;28;20033;-73
2021/08/02 10:10:59;;;;;;;5.05;3.42;;;20.70;99.90;;;;;;5056702;28;20386;-72
2021/08/02 10:13:31;;;;;;;6.05;3.38;;;20.70;99.90;;;;;;5053824;28;20024;-69
2021/08/02 10:16:00;;;;;;;6.22;4.18;;;20.80;99.90;;;;;;5051510;28;20041;-69
2021/08/02 10:18:28;;;;;;;5.57;3.90;;;20.70;99.90;;;;;;5056203;28;20033;-69
2021/08/02 10:21:11;;;;;;;6.13;3.85;;;20.60;99.90;;;;;;5060931;28;20100;-71
2021/08/02 10:23:40;;;;;;;;;;;20.60;99.90;;;;;;5054385;28;20433;-71
2021/08/02 10:26:29;;;;;;;7.20;3.80;;;20.60;99.90;;;;;;5060356;28;19985;-71
2021/08/02 10:28:55;;;;;;;4.18;3.58;;;20.70;99.90;;;;;;5056778;28;20018;-72
2021/08/02 10:31:21;;;;;;;3.65;3.35;;;20.80;99.90;;;;;;5053273;28;20037;-71
2021/08/02 10:33:47;;;;;;;10.10;3.95;;;20.80;99.90;;;;;;5050048;28;20025;-71
2021/08/02 10:36:17;;;;;;;7.13;4.20;;;20.90;99.90;;;;;;5052724;28;20017;-68
2021/08/02 10:38:47;;;;;;;6.78;4.07;;;20.90;99.90;;;;;;5054374;28;20029;-68
2021/08/02 10:41:27;;;;;;;8.55;3.83;;;20.90;99.90;;;;;;5052010;28;20079;-68
2021/08/02 10:43:53;;;;;;;8.60;3.78;;;20.80;99.90;;;;;;5044023;28;20037;-68
2021/08/02 10:46:24;;;;;;;5.80;3.97;;;20.80;99.90;;;;;;5048801;28;20021;-68
2021/08/02 10:48:52;;;;;;;4.20;3.50;;;20.90;99.90;;;;;;5053490;28;20048;-68
2021/08/02 10:51:28;;;;;;;4.20;3.15;;;20.90;99.90;;;;;;5047623;28;20527;-67
2021/08/02 10:53:58;;;;;;;6.75;3.67;;;20.70;99.90;;;;;;5049270;28;20041;-68
2021/08/02 10:56:34;;;;;;;4.60;3.17;;;20.80;99.90;;;;;;5052301;28;20033;-68
2021/08/02 10:59:00;;;;;;;6.93;3.90;;;20.80;99.90;;;;;;5051983;28;20048;-68
2021/08/02 11:01:27;;;;;;;9.73;4.65;;;20.50;99.90;;;;;;5047786;28;20315;-68
2021/08/02 11:04:10;;;;;;;6.20;4.60;;;20.30;99.90;;;;;;5047354;28;20095;-68
2021/08/02 11:06:36;;;;;;;5.00;4.10;;;20.30;99.90;;;;;;5044831;28;20021;-69
2021/08/02 11:09:02;;;;;;;5.95;4.38;;;20.30;99.90;;;;;;5044303;28;20034;-68
2021/08/02 11:11:30;;;;;;;7.82;4.90;;;20.20;99.90;;;;;;5050757;28;20017;-72
2021/08/02 11:14:17;;;;;;;5.28;4.63;;;20.30;99.90;;;;;;5049885;28;20017;-70
2021/08/02 11:16:52;;;;;;;6.03;4.10;;;20.40;99.90;;;;;;5048173;28;20048;-72
2021/08/02 11:19:31;;;;;;;7.70;4.43;;;20.50;99.90;;;;;;5049984;28;20388;-71
2021/08/02 11:22:06;;;;;;;8.57;4.38;;;20.60;99.90;;;;;;5053303;28;20021;-72
2021/08/02 11:24:35;;;;;;;9.35;5.13;;;20.50;99.90;;;;;;5048939;28;20396;-69
2021/08/02 11:27:03;;;;;;;6.65;4.55;;;20.40;99.90;;;;;;5054441;28;20111;-70
2021/08/02 11:29:30;;;;;;;7.30;4.70;;;20.40;99.90;;;;;;5054388;28;20517;-68
2021/08/02 11:31:57;;;;;;;7.43;4.82;;;20.30;99.90;;;;;;5060323;28;20029;-73
2021/08/02 11:34:23;;;;;;;7.50;4.38;;;20.40;99.90;;;;;;5050576;28;20086;-70
2021/08/02 11:37:13;;;;;;;7.53;5.07;;;20.50;99.90;;;;;;5055146;28;20029;-69
2021/08/02 11:39:44;;;;;;;5.00;4.53;;;20.40;99.90;;;;;;5053191;28;20033;-72
2021/08/02 11:42:15;;;;;;;5.60;5.00;;;20.40;99.90;;;;;;5054227;28;20043;-71
2021/08/02 11:44:43;;;;;;;6.88;4.30;;;20.50;99.90;;;;;;5046552;28;20052;-70
2021/08/02 11:47:17;;;;;;;8.23;4.90;;;20.70;99.90;;;;;;5054608;28;20471;-69
2021/08/02 11:49:43;;;;;;;6.85;5.40;;;20.90;99.90;;;;;;5056448;28;20033;-71
2021/08/02 11:52:16;;;;;;;5.60;4.47;;;21.00;99.90;;;;;;5054963;28;20017;-71
2021/08/02 11:54:44;;;;;;;5.88;5.28;;;21.20;99.90;;;;;;5063782;28;20032;-71
2021/08/02 11:57:20;;;;;;;9.95;4.00;;;21.00;99.90;;;;;;5060751;28;20036;-71
2021/08/02 11:59:56;;;;;;;5.80;4.43;;;21.00;99.90;;;;;;5063589;28;20025;-69
2021/08/02 12:02:49;;;;;;;5.97;4.28;;;21.20;99.90;;;;;;5055485;28;20126;-70
2021/08/02 12:05:28;;;;;;;5.50;4.97;;;21.20;99.90;;;;;;5054330;28;20123;-69
2021/08/02 12:07:54;;;;;;;5.80;4.30;;;21.30;99.90;;;;;;5062154;28;20107;-71
2021/08/02 12:10:22;;;;;;;6.35;4.72;;;21.40;99.90;;;;;;5055076;28;20053;-71
2021/08/02 12:12:59;;;;;;;5.82;5.30;;;21.40;99.90;;;;;;5060235;28;20045;-70
2021/08/02 12:15:25;;;;;;;8.27;5.05;;;21.10;99.90;;;;;;5066692;28;20032;-71
2021/08/02 12:17:53;;;;;;;7.75;4.90;;;21.20;99.90;;;;;;5064091;28;20415;-69
2021/08/02 12:20:36;;;;;;;9.80;5.57;;;21.20;99.90;;;;;;5060502;28;20381;-69
2021/08/02 12:23:04;;;;;;;7.22;5.15;;;21.00;99.90;;;;;;5052093;28;20235;-69
2021/08/02 12:25:39;;;;;;;7.40;5.10;;;20.90;99.90;;;;;;5053268;28;20174;-69
2021/08/02 12:28:06;;;;;;;7.03;4.75;;;21.10;99.90;;;;;;5057533;28;20095;-69
2021/08/02 12:30:33;;;;;;;5.68;5.25;;;21.00;99.90;;;;;;5058232;28;20027;-69
2021/08/02 12:32:59;;;;;;;5.35;4.85;;;21.00;99.90;;;;;;5056871;28;20021;-69
2021/08/02 12:35:25;;;;;;;9.20;5.35;;;21.00;99.90;;;;;;5054409;28;20039;-71
2021/08/02 12:37:51;;;;;;;7.88;5.60;;;20.90;99.90;;;;;;5053144;28;20029;-72
2021/08/02 12:40:17;;;;;;;8.25;5.75;;;20.90;99.90;;;;;;5046249;28;20021;-70
2021/08/02 12:42:47;;;;;;;9.05;4.93;;;20.80;99.90;;;;;;5051168;28;20036;-70
2021/08/02 12:45:14;;;;;;;5.82;5.20;;;20.90;99.90;;;;;;5052272;28;20021;-71
2021/08/02 12:47:40;;;;;;;7.32;5.60;;;20.80;99.90;;;;;;5044411;28;20057;-69